createdAt,value
2018-04-17T00:00:35.518Z,5.79
2018-04-17T00:03:03.101Z,5.78
2018-04-17T00:05:30.657Z,5.80
2018-04-17T00:07:58.239Z,5.98
2018-04-17T00:10:25.822Z,5.99
2018-04-17T00:12:53.646Z,6.06
2018-04-17T00:15:21.254Z,6.17
2018-04-17T00:17:48.939Z,6.23
2018-04-17T00:20:16.698Z,6.32
2018-04-17T00:22:44.271Z,6.33
2018-04-17T00:25:11.821Z,6.33
2018-04-17T00:27:39.622Z,6.53
2018-04-17T00:30:07.169Z,6.46
2018-04-17T00:32:34.726Z,6.37
2018-04-17T00:35:02.439Z,6.30
2018-04-17T00:37:30.004Z,6.24
2018-04-17T00:39:57.558Z,6.23
2018-04-17T00:42:25.340Z,6.27
2018-04-17T00:44:53.321Z,6.27
2018-04-17T00:47:20.867Z,6.17
2018-04-17T00:49:48.407Z,6.10
2018-04-17T00:52:15.974Z,6.12
2018-04-17T00:54:43.550Z,5.93
2018-04-17T00:57:11.123Z,5.89
2018-04-17T00:59:38.764Z,5.82
2018-04-17T01:02:06.536Z,5.79
2018-04-17T01:04:34.201Z,5.74
2018-04-17T01:07:01.747Z,5.66
2018-04-17T01:09:29.502Z,5.59
2018-04-17T01:11:57.062Z,5.59
2018-04-17T01:14:24.613Z,5.56
2018-04-17T01:16:52.416Z,5.53
2018-04-17T01:19:20.041Z,5.56
2018-04-17T01:21:47.591Z,5.64
2018-04-17T01:24:15.200Z,5.77
2018-04-17T01:26:43.210Z,5.88
2018-04-17T01:29:10.971Z,6.09
2018-04-17T01:31:38.551Z,6.19
2018-04-17T01:34:06.131Z,6.24
2018-04-17T01:36:33.692Z,6.22
2018-04-17T01:39:01.337Z,6.20
2018-04-17T01:41:29.130Z,6.21
2018-04-17T01:43:57.039Z,6.32
2018-04-17T01:46:24.597Z,6.53
2018-04-17T01:48:52.144Z,6.46
2018-04-17T01:51:19.947Z,6.22
2018-04-17T01:53:47.496Z,6.05
2018-04-17T01:56:15.092Z,5.95
2018-04-17T01:58:42.822Z,5.90
2018-04-17T02:01:10.399Z,5.79
2018-04-17T02:03:37.974Z,5.73
2018-04-17T02:06:05.518Z,5.81
2018-04-17T02:08:33.112Z,5.73
2018-04-17T02:11:00.844Z,5.67
2018-04-17T02:13:28.401Z,5.65
2018-04-17T02:15:57.111Z,5.60
2018-04-17T02:18:24.673Z,5.51
2018-04-17T02:20:52.232Z,5.47
2018-04-17T02:23:19.808Z,5.45
2018-04-17T02:25:47.392Z,5.39
2018-04-17T02:28:14.958Z,5.35
2018-04-17T02:30:42.635Z,5.34
2018-04-17T02:33:10.213Z,5.30
2018-04-17T02:35:38.011Z,5.34
2018-04-17T02:38:05.564Z,5.29
2018-04-17T02:40:33.231Z,5.20
2018-04-17T02:43:01.124Z,5.16
2018-04-17T02:45:28.685Z,5.17
2018-04-17T02:47:56.294Z,5.08
2018-04-17T02:50:23.859Z,5.11
2018-04-17T02:52:51.397Z,5.15
2018-04-17T02:55:19.008Z,5.08
2018-04-17T02:57:46.568Z,5.02
2018-04-17T03:00:14.128Z,4.98
2018-04-17T03:02:41.694Z,5.00
2018-04-17T03:05:09.236Z,5.03
2018-04-17T03:07:36.784Z,5.13
2018-04-17T03:10:04.423Z,5.13
2018-04-17T03:12:32.226Z,5.19
2018-04-17T03:15:00.337Z,5.09
2018-04-17T03:17:28.135Z,5.07
2018-04-17T03:19:55.820Z,4.97
2018-04-17T03:22:23.520Z,4.91
2018-04-17T03:24:51.430Z,4.90
2018-04-17T03:27:19.201Z,4.89
2018-04-17T03:29:46.774Z,4.89
2018-04-17T03:32:14.311Z,4.87
2018-04-17T03:34:42.117Z,4.84
2018-04-17T03:37:09.897Z,4.81
2018-04-17T03:39:37.476Z,4.79
2018-04-17T03:42:05.018Z,4.81
2018-04-17T03:44:32.922Z,4.79
2018-04-17T03:47:00.475Z,4.91
2018-04-17T03:49:28.045Z,4.79
2018-04-17T03:51:55.634Z,4.73
2018-04-17T03:54:23.181Z,4.72
2018-04-17T03:56:50.991Z,4.71
2018-04-17T03:59:18.563Z,4.69
2018-04-17T04:01:46.176Z,4.71
2018-04-17T04:04:13.785Z,4.78
2018-04-17T04:06:41.350Z,5.03
2018-04-17T04:09:08.903Z,5.11
2018-04-17T04:11:36.637Z,4.99
2018-04-17T04:14:04.233Z,5.10
2018-04-17T04:16:43.459Z,5.21
2018-04-17T04:19:24.268Z,5.19
2018-04-17T04:22:03.516Z,5.07
2018-04-17T04:24:42.957Z,5.04
2018-04-17T04:27:10.719Z,5.02
2018-04-17T04:29:38.394Z,5.07
2018-04-17T04:32:05.976Z,5.08
2018-04-17T04:34:33.983Z,5.14
2018-04-17T04:37:01.730Z,5.08
2018-04-17T04:39:29.403Z,5.07
2018-04-17T04:41:57.240Z,5.18
2018-04-17T04:44:24.792Z,5.25
2018-04-17T04:46:52.534Z,5.26
2018-04-17T04:49:20.156Z,5.32
2018-04-17T04:51:47.717Z,5.39
2018-04-17T04:54:15.261Z,5.48
2018-04-17T04:56:43.063Z,5.54
2018-04-17T04:59:10.709Z,5.61
2018-04-17T05:01:38.277Z,5.61
2018-04-17T05:04:05.850Z,5.69
2018-04-17T05:06:33.632Z,5.78
2018-04-17T05:09:01.220Z,5.84
2018-04-17T05:11:28.939Z,5.99
2018-04-17T05:13:56.892Z,6.17
2018-04-17T05:16:24.643Z,6.32
2018-04-17T05:18:52.181Z,6.40
2018-04-17T05:21:19.855Z,6.50
2018-04-17T05:23:47.448Z,6.66
2018-04-17T05:26:15.346Z,6.84
2018-04-17T05:28:42.896Z,7.01
2018-04-17T05:31:10.697Z,7.20
2018-04-17T05:33:38.380Z,7.39
2018-04-17T05:36:06.000Z,7.61
2018-04-17T05:38:33.906Z,7.65
2018-04-17T05:41:01.466Z,7.97
2018-04-17T05:43:29.048Z,8.21
2018-04-17T05:45:56.631Z,8.49
2018-04-17T05:48:24.178Z,8.75
2018-04-17T05:50:51.863Z,9.07
2018-04-17T05:53:19.674Z,9.31
2018-04-17T05:55:47.258Z,9.76
2018-04-17T05:58:14.845Z,10.10
2018-04-17T06:00:42.386Z,10.42
2018-04-17T06:03:10.096Z,10.73
2018-04-17T06:05:37.647Z,11.07
2018-04-17T06:08:05.289Z,11.56
2018-04-17T06:10:33.095Z,12.31
2018-04-17T06:13:00.648Z,13.20
2018-04-17T06:15:28.240Z,13.68
2018-04-17T06:17:55.833Z,14.14
2018-04-17T06:20:23.553Z,14.44
2018-04-17T06:22:51.371Z,14.66
2018-04-17T06:25:18.914Z,14.28
2018-04-17T06:27:46.635Z,15.04
2018-04-17T06:30:14.297Z,15.03
2018-04-17T06:32:41.868Z,14.81
2018-04-17T06:35:09.452Z,14.79
2018-04-17T06:37:37.051Z,14.97
2018-04-17T06:40:04.633Z,15.61
2018-04-17T06:42:32.207Z,15.04
2018-04-17T06:44:59.758Z,14.57
2018-04-17T06:47:27.416Z,14.53
2018-04-17T06:49:55.053Z,13.92
2018-04-17T06:52:22.603Z,14.05
2018-04-17T06:54:50.166Z,13.66
2018-04-17T06:57:18.012Z,13.52
2018-04-17T06:59:45.583Z,13.52
2018-04-17T07:02:13.363Z,13.72
2018-04-17T07:04:41.031Z,13.84
2018-04-17T07:07:08.729Z,13.90
2018-04-17T07:09:36.363Z,13.98
2018-04-17T07:12:03.930Z,13.87
2018-04-17T07:14:31.658Z,14.04
2018-04-17T07:16:59.229Z,14.30
2018-04-17T07:19:26.837Z,14.42
2018-04-17T07:21:54.387Z,14.35
2018-04-17T07:24:22.136Z,15.04
2018-04-17T07:26:49.727Z,14.24
2018-04-17T07:29:17.276Z,14.63
2018-04-17T07:31:44.845Z,13.65
2018-04-17T07:34:12.416Z,14.23
2018-04-17T07:36:40.158Z,14.27
2018-04-17T07:39:07.985Z,13.92
2018-04-17T07:41:35.553Z,14.62
2018-04-17T07:44:03.285Z,14.28
2018-04-17T07:46:30.890Z,14.21
2018-04-17T07:49:05.141Z,14.42
2018-04-17T07:51:32.748Z,14.25
2018-04-17T07:54:00.590Z,14.42
2018-04-17T07:56:28.153Z,14.65
2018-04-17T07:58:55.723Z,14.68
2018-04-17T08:01:23.829Z,14.73
2018-04-17T08:03:51.599Z,15.12
2018-04-17T08:06:19.144Z,14.86
2018-04-17T08:08:46.711Z,14.76
2018-04-17T08:11:14.322Z,15.16
2018-04-17T08:13:41.863Z,15.38
2018-04-17T08:16:09.407Z,14.76
2018-04-17T08:18:37.008Z,15.12
2018-04-17T08:21:04.596Z,15.59
2018-04-17T08:23:32.169Z,15.22
2018-04-17T08:25:59.733Z,15.42
2018-04-17T08:28:27.316Z,15.61
2018-04-17T08:30:54.873Z,15.45
2018-04-17T08:33:22.685Z,15.66
2018-04-17T08:35:50.222Z,15.44
2018-04-17T08:38:18.036Z,15.62
2018-04-17T08:40:45.616Z,15.84
2018-04-17T08:43:13.280Z,15.76
2018-04-17T08:45:40.888Z,16.18
2018-04-17T08:48:08.447Z,16.22
2018-04-17T08:50:36.061Z,16.26
2018-04-17T08:53:03.624Z,16.17
2018-04-17T08:55:31.179Z,16.63
2018-04-17T08:57:58.902Z,16.63
2018-04-17T09:00:26.704Z,16.85
2018-04-17T09:02:54.396Z,16.68
2018-04-17T09:05:21.947Z,16.69
2018-04-17T09:07:49.498Z,16.81
2018-04-17T09:10:17.314Z,16.83
2018-04-17T09:12:44.993Z,16.95
2018-04-17T09:15:12.770Z,17.12
2018-04-17T09:17:40.548Z,16.91
2018-04-17T09:20:08.179Z,17.26
2018-04-17T09:22:35.731Z,17.97
2018-04-17T09:25:03.288Z,17.14
2018-04-17T09:27:30.891Z,17.65
2018-04-17T09:29:58.446Z,18.02
2018-04-17T09:32:26.189Z,17.82
2018-04-17T09:34:53.966Z,18.15
2018-04-17T09:37:21.535Z,18.13
2018-04-17T09:39:49.317Z,18.31
2018-04-17T09:42:17.044Z,17.71
2018-04-17T09:44:45.009Z,17.78
2018-04-17T09:47:12.563Z,17.61
2018-04-17T09:49:40.113Z,17.93
2018-04-17T09:52:07.900Z,17.62
2018-04-17T09:54:35.579Z,17.72
2018-04-17T09:57:03.559Z,18.06
2018-04-17T09:59:31.292Z,16.89
2018-04-17T10:01:58.843Z,17.39
2018-04-17T10:04:26.424Z,17.94
2018-04-17T10:06:54.159Z,17.90
2018-04-17T10:09:21.882Z,18.04
2018-04-17T10:11:49.454Z,17.67
2018-04-17T10:14:16.994Z,17.81
2018-04-17T10:16:45.100Z,17.62
2018-04-17T10:19:12.711Z,17.46
2018-04-17T10:21:40.271Z,17.61
2018-04-17T10:24:07.847Z,18.07
2018-04-17T10:26:35.405Z,18.01
2018-04-17T10:29:03.114Z,17.79
2018-04-17T10:31:30.691Z,18.26
2018-04-17T10:33:58.388Z,17.88
2018-04-17T10:36:25.959Z,18.03
2018-04-17T10:38:53.542Z,18.26
2018-04-17T10:41:21.127Z,18.59
2018-04-17T10:43:49.119Z,18.50
2018-04-17T10:46:16.658Z,18.26
2018-04-17T10:48:44.311Z,17.79
2018-04-17T10:51:11.872Z,17.58
2018-04-17T10:53:39.693Z,18.16
2018-04-17T10:56:07.505Z,18.14
2018-04-17T10:58:35.058Z,18.52
2018-04-17T11:01:02.613Z,17.88
2018-04-17T11:03:30.181Z,18.08
2018-04-17T11:05:57.750Z,17.96
2018-04-17T11:08:25.409Z,18.39
2018-04-17T11:10:52.976Z,18.36
2018-04-17T11:13:20.821Z,18.15
2018-04-17T11:15:48.370Z,18.30
2018-04-17T11:18:15.943Z,17.75
2018-04-17T11:20:43.680Z,18.17
2018-04-17T11:23:11.267Z,18.53
2018-04-17T11:25:38.825Z,18.85
2018-04-17T11:28:06.413Z,18.62
2018-04-17T11:30:33.999Z,18.32
2018-04-17T11:33:01.563Z,18.68
2018-04-17T11:35:29.148Z,18.20
2018-04-17T11:37:56.897Z,18.36
2018-04-17T11:40:24.706Z,18.65
2018-04-17T11:42:52.275Z,18.97
2018-04-17T11:45:19.874Z,18.88
2018-04-17T11:47:47.447Z,18.87
2018-04-17T11:50:15.013Z,18.83
2018-04-17T11:52:42.781Z,18.45
2018-04-17T11:55:10.359Z,18.60
2018-04-17T11:57:37.921Z,18.80
2018-04-17T12:00:05.508Z,19.00
2018-04-17T12:02:33.278Z,19.04
2018-04-17T12:05:00.986Z,19.07
2018-04-17T12:07:28.562Z,18.96
2018-04-17T12:09:56.120Z,18.88
2018-04-17T12:12:23.695Z,18.96
2018-04-17T12:14:51.280Z,19.09
2018-04-17T12:17:19.021Z,19.48
2018-04-17T12:19:46.668Z,19.65
2018-04-17T12:22:14.224Z,19.41
2018-04-17T12:24:41.797Z,19.42
2018-04-17T12:27:09.412Z,19.51
2018-04-17T12:29:37.303Z,19.77
2018-04-17T12:32:04.858Z,19.41
2018-04-17T12:34:32.461Z,19.59
2018-04-17T12:37:00.034Z,19.48
2018-04-17T12:39:27.652Z,19.70
2018-04-17T12:41:55.212Z,19.85
2018-04-17T12:44:22.772Z,19.37
2018-04-17T12:46:51.027Z,19.82
2018-04-17T12:49:18.575Z,20.16
2018-04-17T12:51:46.324Z,20.16
2018-04-17T12:54:14.159Z,20.03
2018-04-17T12:56:41.707Z,20.04
2018-04-17T12:59:09.473Z,20.07
2018-04-17T13:01:37.038Z,19.95
2018-04-17T13:04:04.866Z,19.28
2018-04-17T13:06:32.413Z,19.06
2018-04-17T13:08:59.979Z,19.18
2018-04-17T13:11:27.741Z,19.59
2018-04-17T13:13:55.290Z,19.52
2018-04-17T13:16:22.877Z,19.95
2018-04-17T13:18:50.710Z,20.04
2018-04-17T13:21:18.287Z,19.82
2018-04-17T13:23:46.265Z,19.99
2018-04-17T13:26:13.912Z,20.04
2018-04-17T13:28:41.465Z,19.96
2018-04-17T13:31:09.066Z,20.53
2018-04-17T13:33:36.650Z,20.33
2018-04-17T13:36:04.205Z,19.79
2018-04-17T13:38:32.118Z,20.27
2018-04-17T13:40:59.686Z,20.36
2018-04-17T13:43:27.469Z,20.19
2018-04-17T13:45:56.437Z,20.78
2018-04-17T13:48:24.004Z,20.53
2018-04-17T13:50:51.565Z,20.68
2018-04-17T13:53:19.913Z,21.10
2018-04-17T13:55:47.457Z,21.31
2018-04-17T13:58:15.022Z,21.29
2018-04-17T14:00:42.594Z,21.08
2018-04-17T14:03:10.411Z,21.26
2018-04-17T14:05:38.291Z,20.92
2018-04-17T14:08:05.964Z,21.32
2018-04-17T14:10:33.521Z,21.40
2018-04-17T14:13:01.503Z,21.13
2018-04-17T14:15:29.060Z,21.04
2018-04-17T14:17:56.869Z,21.17
2018-04-17T14:20:24.670Z,21.07
2018-04-17T14:22:52.228Z,20.47
2018-04-17T14:25:19.781Z,21.22
2018-04-17T14:27:47.513Z,21.46
2018-04-17T14:30:15.072Z,21.54
2018-04-17T14:32:42.618Z,21.13
2018-04-17T14:35:10.189Z,21.21
2018-04-17T14:37:37.758Z,21.41
2018-04-17T14:40:05.311Z,21.46
2018-04-17T14:42:33.463Z,21.68
2018-04-17T14:45:01.209Z,21.12
2018-04-17T14:47:28.779Z,20.74
2018-04-17T14:49:56.661Z,21.41
2018-04-17T14:52:24.213Z,21.54
2018-04-17T14:54:51.760Z,21.21
2018-04-17T14:57:19.378Z,21.11
2018-04-17T14:59:46.925Z,21.21
2018-04-17T15:02:14.491Z,21.27
2018-04-17T15:04:42.096Z,20.92
2018-04-17T15:07:09.653Z,21.12
2018-04-17T15:09:37.449Z,21.29
2018-04-17T15:12:05.009Z,20.50
2018-04-17T15:14:33.044Z,20.25
2018-04-17T15:17:00.599Z,20.32
2018-04-17T15:19:28.355Z,21.05
2018-04-17T15:21:55.956Z,21.35
2018-04-17T15:24:23.724Z,21.13
2018-04-17T15:26:51.358Z,21.13
2018-04-17T15:29:19.162Z,21.13
2018-04-17T15:31:46.732Z,21.25
2018-04-17T15:34:14.922Z,20.91
2018-04-17T15:36:42.701Z,21.21
2018-04-17T15:39:10.261Z,21.43
2018-04-17T15:41:37.861Z,20.99
2018-04-17T15:44:05.626Z,21.34
2018-04-17T15:46:33.176Z,21.34
2018-04-17T15:49:00.757Z,20.80
2018-04-17T15:51:28.329Z,21.05
2018-04-17T15:53:55.916Z,20.93
2018-04-17T15:56:23.461Z,20.07
2018-04-17T15:58:51.390Z,20.42
2018-04-17T16:01:19.002Z,20.21
2018-04-17T16:03:46.583Z,20.19
2018-04-17T16:06:14.194Z,20.15
2018-04-17T16:08:41.757Z,20.22
2018-04-17T16:11:09.302Z,20.68
2018-04-17T16:13:37.040Z,20.43
2018-04-17T16:16:04.621Z,20.32
2018-04-17T16:18:32.172Z,20.31
2018-04-17T16:20:59.770Z,20.38
2018-04-17T16:23:27.327Z,20.32
2018-04-17T16:25:54.893Z,20.10
2018-04-17T16:28:22.730Z,20.30
2018-04-17T16:30:50.299Z,19.98
2018-04-17T16:33:17.853Z,19.93
2018-04-17T16:35:45.687Z,20.15
2018-04-17T16:38:13.237Z,20.09
2018-04-17T16:40:40.825Z,19.95
2018-04-17T16:43:08.394Z,19.62
2018-04-17T16:45:35.984Z,19.65
2018-04-17T16:48:04.172Z,19.69
2018-04-17T16:50:31.737Z,19.77
2018-04-17T16:52:59.281Z,19.52
2018-04-17T16:55:26.999Z,19.93
2018-04-17T16:57:54.547Z,20.13
2018-04-17T17:00:22.094Z,19.77
2018-04-17T17:02:49.822Z,19.63
2018-04-17T17:05:17.508Z,19.72
2018-04-17T17:07:45.108Z,19.43
2018-04-17T17:10:12.681Z,19.42
2018-04-17T17:12:40.269Z,19.42
2018-04-17T17:15:07.828Z,19.40
2018-04-17T17:17:36.076Z,19.50
2018-04-17T17:20:03.809Z,19.52
2018-04-17T17:22:31.421Z,19.40
2018-04-17T17:24:59.170Z,19.23
2018-04-17T17:27:26.738Z,19.12
2018-04-17T17:29:54.315Z,19.21
2018-04-17T17:32:21.889Z,19.21
2018-04-17T17:34:49.814Z,19.15
2018-04-17T17:37:17.528Z,19.09
2018-04-17T17:39:45.078Z,19.02
2018-04-17T17:42:13.062Z,18.86
2018-04-17T17:44:40.607Z,18.84
2018-04-17T17:47:08.168Z,18.75
2018-04-17T17:49:35.762Z,18.66
2018-04-17T17:52:03.479Z,18.54
2018-04-17T17:54:31.291Z,18.57
2018-04-17T17:56:58.844Z,18.48
2018-04-17T17:59:26.390Z,18.22
2018-04-17T18:01:53.968Z,18.05
2018-04-17T18:04:21.533Z,18.00
2018-04-17T18:06:49.128Z,17.80
2018-04-17T18:09:16.693Z,17.68
2018-04-17T18:11:44.277Z,17.74
2018-04-17T18:14:11.835Z,17.67
2018-04-17T18:16:39.422Z,17.37
2018-04-17T18:19:07.250Z,17.07
2018-04-17T18:21:34.986Z,16.87
2018-04-17T18:24:02.736Z,16.72
2018-04-17T18:26:30.325Z,16.53
2018-04-17T18:28:57.898Z,16.36
2018-04-17T18:31:25.579Z,16.24
2018-04-17T18:33:54.087Z,16.09
2018-04-17T18:36:21.648Z,15.95
2018-04-17T18:38:49.857Z,15.83
2018-04-17T18:41:17.413Z,15.79
2018-04-17T18:43:44.985Z,15.68
2018-04-17T18:46:12.554Z,15.58
2018-04-17T18:48:40.107Z,15.49
2018-04-17T18:51:07.686Z,15.45
2018-04-17T18:53:35.292Z,15.36
2018-04-17T18:56:02.837Z,15.27
2018-04-17T18:58:30.581Z,15.30
2018-04-17T19:00:58.358Z,15.35
2018-04-17T19:03:25.923Z,15.17
2018-04-17T19:05:54.257Z,15.13
2018-04-17T19:08:21.818Z,15.09
2018-04-17T19:10:49.398Z,15.12
2018-04-17T19:13:16.983Z,15.03
2018-04-17T19:15:44.558Z,15.00
2018-04-17T19:18:12.249Z,14.96
2018-04-17T19:20:40.263Z,14.88
2018-04-17T19:23:08.009Z,15.18
2018-04-17T19:25:35.575Z,14.91
2018-04-17T19:28:03.185Z,14.74
2018-04-17T19:30:30.764Z,14.69
2018-04-17T19:32:58.376Z,14.65
2018-04-17T19:35:26.010Z,14.66
2018-04-17T19:37:54.311Z,14.42
2018-04-17T19:40:21.867Z,14.27
2018-04-17T19:42:49.432Z,14.25
2018-04-17T19:45:17.011Z,14.13
2018-04-17T19:47:44.804Z,14.05
2018-04-17T19:50:12.375Z,13.95
2018-04-17T19:52:39.935Z,13.98
2018-04-17T19:55:07.506Z,13.97
2018-04-17T19:57:35.098Z,13.88
2018-04-17T20:00:02.665Z,13.72
2018-04-17T20:02:30.246Z,13.65
2018-04-17T20:04:57.794Z,13.52
2018-04-17T20:07:25.382Z,13.44
2018-04-17T20:09:53.069Z,13.43
2018-04-17T20:12:20.682Z,13.49
2018-04-17T20:14:48.313Z,13.42
2018-04-17T20:17:16.179Z,13.47
2018-04-17T20:19:43.723Z,13.55
2018-04-17T20:22:11.270Z,13.51
2018-04-17T20:24:38.849Z,13.46
2018-04-17T20:27:06.404Z,13.63
2018-04-17T20:29:33.982Z,13.65
2018-04-17T20:32:01.540Z,13.55
2018-04-17T20:34:29.556Z,13.59
2018-04-17T20:36:57.138Z,13.64
2018-04-17T20:39:24.869Z,13.66
2018-04-17T20:41:52.548Z,13.64
2018-04-17T20:44:20.127Z,13.56
2018-04-17T20:46:47.768Z,13.47
2018-04-17T20:49:15.337Z,13.41
2018-04-17T20:51:42.916Z,13.43
2018-04-17T20:54:10.621Z,13.46
2018-04-17T20:56:38.291Z,13.45
2018-04-17T20:59:06.408Z,13.46
2018-04-17T21:01:33.976Z,13.36
2018-04-17T21:04:01.563Z,13.23
2018-04-17T21:06:29.405Z,13.19
2018-04-17T21:08:57.187Z,13.05
2018-04-17T21:11:24.777Z,12.96
2018-04-17T21:13:52.371Z,12.89
2018-04-17T21:16:20.003Z,12.95
2018-04-17T21:18:47.573Z,13.06
2018-04-17T21:21:15.138Z,12.97
2018-04-17T21:23:42.716Z,12.71
2018-04-17T21:26:10.308Z,12.55
2018-04-17T21:28:38.046Z,12.49
2018-04-17T21:31:05.657Z,12.42
2018-04-17T21:33:33.207Z,12.38
2018-04-17T21:36:00.816Z,12.38
2018-04-17T21:38:28.575Z,12.37
2018-04-17T21:40:56.405Z,12.32
2018-04-17T21:43:24.017Z,12.37
2018-04-17T21:45:51.590Z,12.21
2018-04-17T21:48:19.140Z,12.62
2018-04-17T21:50:46.720Z,12.20
2018-04-17T21:53:14.313Z,12.18
2018-04-17T21:55:42.034Z,12.32
2018-04-17T21:58:09.586Z,12.02
2018-04-17T22:00:37.346Z,11.91
2018-04-17T22:03:05.046Z,11.89
2018-04-17T22:05:32.591Z,11.82
2018-04-17T22:08:00.143Z,11.68
2018-04-17T22:10:27.728Z,11.55
2018-04-17T22:12:55.448Z,11.45
2018-04-17T22:15:23.097Z,11.46
2018-04-17T22:17:50.676Z,11.42
2018-04-17T22:20:18.273Z,11.34
2018-04-17T22:22:45.853Z,11.34
2018-04-17T22:25:13.658Z,11.39
2018-04-17T22:27:41.473Z,11.25
2018-04-17T22:30:09.078Z,11.16
2018-04-17T22:32:36.827Z,11.11
2018-04-17T22:35:04.602Z,11.11
2018-04-17T22:37:32.380Z,11.15
2018-04-17T22:39:59.982Z,11.07
2018-04-17T22:42:27.716Z,11.07
2018-04-17T22:44:55.468Z,11.01
2018-04-17T22:47:23.029Z,10.93
2018-04-17T22:49:50.611Z,10.91
2018-04-17T22:52:18.437Z,10.82
2018-04-17T22:54:46.211Z,10.72
2018-04-17T22:57:13.788Z,10.74
2018-04-17T22:59:41.883Z,10.73
2018-04-17T23:02:09.754Z,10.71
2018-04-17T23:04:37.301Z,10.68
2018-04-17T23:07:04.885Z,10.65
2018-04-17T23:09:32.563Z,10.60
2018-04-17T23:12:00.131Z,10.65
2018-04-17T23:14:27.719Z,10.62
2018-04-17T23:16:55.295Z,10.51
2018-04-17T23:19:22.885Z,10.56
2018-04-17T23:21:50.619Z,10.47
2018-04-17T23:24:18.216Z,10.45
2018-04-17T23:26:45.796Z,10.41
2018-04-17T23:29:13.363Z,10.39
2018-04-17T23:31:41.066Z,10.31
2018-04-17T23:34:08.628Z,10.32
2018-04-17T23:36:36.195Z,10.28
2018-04-17T23:39:03.961Z,10.31
2018-04-17T23:41:31.520Z,10.25
2018-04-17T23:43:59.157Z,10.24
2018-04-17T23:46:26.843Z,10.15
2018-04-17T23:48:54.395Z,10.12
2018-04-17T23:51:21.975Z,10.14
2018-04-17T23:53:49.713Z,10.17
2018-04-17T23:56:17.322Z,10.17
2018-04-17T23:58:44.874Z,10.13
